CheckWX is a tool to help pilots better visualize weather data.  It is not intended as a substitute for an official pre-flight weather briefing.

15:42:57 UTC

K2DP METAR
Dare County Gunnery Range Airport
North Carolina, USA
Current

17 mins ago

K2DP 171526Z AUTO 31003KT 10SM BKN019 27/24 A3003 RMK AO2 LTG DSNT S-SW BKN V SCT SLPNO $
Observed
Aug-17 @ 15:26 UTC
Wind
  • 310° at 3 KTS
Visibility
10 SM
Flight Rules
MVFR
Cloud Levels
  • Broken at 1,900' AGL
Temperature
27°C / 81°F
Dewpoint
24°C / 75°F
Heat Index
31°C / 87°F
Humidity
84%
Altimeter
30.03" Hg
Pressure
1016.92 hPa
Previous

32 mins ago

K2DP 171511Z AUTO 26004KT 10SM SCT018 29/23 A3002 RMK AO2 LTG DSNT SE-SW SLPNO $
Observed
Aug-17 @ 15:11 UTC
Wind
  • 260° at 4 KTS
Visibility
10 SM
Flight Rules
VFR
Cloud Levels
  • Scattered at 1,800' AGL
Temperature
29°C / 84°F
Dewpoint
23°C / 73°F
Heat Index
32°C / 90°F
Humidity
70%
Altimeter
30.02" Hg
Pressure
1016.62 hPa
Previous

47 mins ago

K2DP 171456Z AUTO 30003KT 10SM BKN017 28/24 A3002 RMK AO2 LTG DSNT S-SW SLPNO T02820236 52008 $
Observed
Aug-17 @ 14:56 UTC
Wind
  • 300° at 3 KTS
Visibility
10 SM
Flight Rules
MVFR
Cloud Levels
  • Broken at 1,700' AGL
Temperature
28°C / 82°F
Dewpoint
24°C / 75°F
Heat Index
32°C / 89°F
Humidity
79%
Altimeter
30.02" Hg
Pressure
1016.62 hPa